createdAt,value
2018-02-14T00:00:01.168Z,12.40
2018-02-14T00:02:29.293Z,12.50
2018-02-14T00:04:57.459Z,12.73
2018-02-14T00:07:25.601Z,12.07
2018-02-14T00:09:53.738Z,12.55
2018-02-14T00:12:21.870Z,11.82
2018-02-14T00:14:50.773Z,11.38
2018-02-14T00:17:18.909Z,10.93
2018-02-14T00:19:47.057Z,12.00
2018-02-14T00:22:15.182Z,10.95
2018-02-14T00:24:43.377Z,11.85
2018-02-14T00:27:11.517Z,11.60
2018-02-14T00:29:40.997Z,12.90
2018-02-14T00:32:09.142Z,10.77
2018-02-14T00:34:37.399Z,10.77
2018-02-14T00:37:05.554Z,10.95
2018-02-14T00:39:33.684Z,11.50
2018-02-14T00:42:02.580Z,11.43
2018-02-14T00:44:31.481Z,10.95
2018-02-14T00:47:00.408Z,11.05
2018-02-14T00:49:28.526Z,11.40
2018-02-14T00:51:56.706Z,11.20
2018-02-14T00:54:24.836Z,12.10
2018-02-14T00:56:52.972Z,10.30
2018-02-14T00:59:21.110Z,11.65
2018-02-14T01:01:49.256Z,12.20
2018-02-14T01:04:17.498Z,12.15
2018-02-14T01:06:45.641Z,12.18
2018-02-14T01:09:14.567Z,12.70
2018-02-14T01:11:42.690Z,12.40
2018-02-14T01:14:11.590Z,11.75
2018-02-14T01:16:40.518Z,11.70
2018-02-14T01:19:14.205Z,11.10
2018-02-14T01:21:47.897Z,11.68
2018-02-14T01:24:16.033Z,11.30
2018-02-14T01:26:44.175Z,10.27
2018-02-14T01:29:12.310Z,11.10
2018-02-14T01:31:40.484Z,10.57
2018-02-14T01:34:09.401Z,10.90
2018-02-14T01:36:37.560Z,13.00
2018-02-14T01:39:05.701Z,12.27
2018-02-14T01:41:34.586Z,11.43
2018-02-14T01:44:03.496Z,12.95
2018-02-14T01:46:31.653Z,11.05
2018-02-14T01:49:00.573Z,10.25
2018-02-14T01:51:28.815Z,9.75
2018-02-14T01:53:57.113Z,10.18
2018-02-14T01:56:25.246Z,13.00
2018-02-14T01:58:53.389Z,12.60
2018-02-14T02:01:21.521Z,10.75
2018-02-14T02:03:49.793Z,11.80
2018-02-14T02:06:17.921Z,10.35
2018-02-14T02:08:46.070Z,10.98
2018-02-14T02:11:14.185Z,10.30
2018-02-14T02:13:43.077Z,10.45
2018-02-14T02:16:11.956Z,10.27
2018-02-14T02:18:40.853Z,10.20
2018-02-14T02:21:09.757Z,10.65
2018-02-14T02:23:38.704Z,11.05
2018-02-14T02:26:06.840Z,10.60
2018-02-14T02:28:35.045Z,10.23
2018-02-14T02:31:03.186Z,11.38
2018-02-14T02:33:31.309Z,10.40
2018-02-14T02:36:00.226Z,11.30
2018-02-14T02:38:28.356Z,12.25
2018-02-14T02:40:56.499Z,10.20
2018-02-14T02:43:24.624Z,10.02
2018-02-14T02:45:52.758Z,11.23
2018-02-14T02:48:20.881Z,11.38
2018-02-14T02:50:49.139Z,14.07
2018-02-14T02:53:17.274Z,12.40
2018-02-14T02:55:45.430Z,11.32
2018-02-14T02:58:13.610Z,12.00
2018-02-14T03:00:41.737Z,10.98
2018-02-14T03:03:10.642Z,12.50
2018-02-14T03:05:38.784Z,12.02
2018-02-14T03:08:07.684Z,10.90
2018-02-14T03:10:36.582Z,10.82
2018-02-14T03:13:04.728Z,11.15
2018-02-14T03:15:32.897Z,11.40
2018-02-14T03:18:01.021Z,10.88
2018-02-14T03:20:29.280Z,11.12
2018-02-14T03:22:57.410Z,11.93
2018-02-14T03:25:25.548Z,11.27
2018-02-14T03:27:53.676Z,12.75
2018-02-14T03:30:22.600Z,11.90
2018-02-14T03:32:50.753Z,9.98
2018-02-14T03:35:19.653Z,12.07
2018-02-14T03:37:48.157Z,11.57
2018-02-14T03:40:16.718Z,11.50
2018-02-14T03:42:44.854Z,11.73
2018-02-14T03:45:13.040Z,12.10
2018-02-14T03:47:41.946Z,12.02
2018-02-14T03:50:10.081Z,12.35
2018-02-14T03:52:38.251Z,14.73
2018-02-14T03:55:06.393Z,12.10
2018-02-14T03:57:34.537Z,12.40
2018-02-14T04:00:02.661Z,12.70
2018-02-14T04:02:30.882Z,13.32
2018-02-14T04:04:59.024Z,13.23
2018-02-14T04:07:27.172Z,14.68
2018-02-14T04:09:55.317Z,13.52
2018-02-14T04:12:23.486Z,14.23
2018-02-14T04:14:51.636Z,14.18
2018-02-14T04:17:19.780Z,15.05
2018-02-14T04:19:48.041Z,16.80
2018-02-14T04:22:16.186Z,15.55
2018-02-14T04:24:44.333Z,16.55
2018-02-14T04:27:12.537Z,15.13
2018-02-14T04:29:40.724Z,15.23
2018-02-14T04:32:08.861Z,15.50
2018-02-14T04:34:37.113Z,14.82
2018-02-14T04:37:05.264Z,15.25
2018-02-14T04:39:34.156Z,13.77
2018-02-14T04:42:03.066Z,16.10
2018-02-14T04:44:31.183Z,15.43
2018-02-14T04:46:59.330Z,16.00
2018-02-14T04:49:27.470Z,16.10
2018-02-14T04:51:55.652Z,15.38
2018-02-14T04:54:23.818Z,16.40
2018-02-14T04:56:51.924Z,15.07
2018-02-14T04:59:20.172Z,15.27
2018-02-14T05:01:48.309Z,13.10
2018-02-14T05:04:17.212Z,13.27
2018-02-14T05:06:45.373Z,13.68
2018-02-14T05:09:13.497Z,14.45
2018-02-14T05:11:41.634Z,13.32
2018-02-14T05:14:09.760Z,13.30
2018-02-14T05:16:37.977Z,14.75
2018-02-14T05:19:06.116Z,14.15
2018-02-14T05:21:34.249Z,13.80
2018-02-14T05:24:02.396Z,15.65
2018-02-14T05:26:30.537Z,15.25
2018-02-14T05:28:58.726Z,14.70
2018-02-14T05:31:26.973Z,14.55
2018-02-14T05:33:55.096Z,14.35
2018-02-14T05:36:23.265Z,14.75
2018-02-14T05:38:51.389Z,14.60
2018-02-14T05:41:19.533Z,14.18
2018-02-14T05:43:48.052Z,13.65
2018-02-14T05:46:17.835Z,13.98
2018-02-14T05:48:45.921Z,14.05
2018-02-14T05:51:15.923Z,14.95
2018-02-14T05:53:44.063Z,15.40
2018-02-14T05:56:12.184Z,17.92
2018-02-14T05:58:40.319Z,14.43
2018-02-14T06:01:08.464Z,13.60
2018-02-14T06:03:36.594Z,13.60
2018-02-14T06:06:04.738Z,13.80
2018-02-14T06:08:32.877Z,13.48
2018-02-14T06:11:01.025Z,14.18
2018-02-14T06:13:29.148Z,15.90
2018-02-14T06:15:57.309Z,15.23
2018-02-14T06:18:25.832Z,17.23
2018-02-14T06:20:53.967Z,17.12
2018-02-14T06:23:22.103Z,16.67
2018-02-14T06:25:50.249Z,17.80
2018-02-14T06:28:18.414Z,15.73
2018-02-14T06:30:46.565Z,16.40
2018-02-14T06:33:14.725Z,14.20
2018-02-14T06:35:42.861Z,13.75
2018-02-14T06:38:11.004Z,13.30
2018-02-14T06:40:39.216Z,14.25
2018-02-14T06:43:08.081Z,14.00
2018-02-14T06:45:36.992Z,15.60
2018-02-14T06:48:05.144Z,14.48
2018-02-14T06:50:33.298Z,15.30
2018-02-14T06:53:01.432Z,15.55
2018-02-14T06:55:29.573Z,15.05
2018-02-14T06:57:57.712Z,14.32
2018-02-14T07:00:25.884Z,15.25
2018-02-14T07:02:54.811Z,15.23
2018-02-14T07:05:22.945Z,15.95
2018-02-14T07:07:51.086Z,14.93
2018-02-14T07:10:19.208Z,13.10
2018-02-14T07:12:48.123Z,15.45
2018-02-14T07:15:16.257Z,14.27
2018-02-14T07:17:45.159Z,16.67
2018-02-14T07:20:13.304Z,23.85
2018-02-14T07:22:41.441Z,21.50
2018-02-14T07:25:09.585Z,19.85
2018-02-14T07:27:37.716Z,17.05
2018-02-14T07:30:05.860Z,19.10
2018-02-14T07:32:33.980Z,18.40
2018-02-14T07:35:02.133Z,18.40
2018-02-14T07:37:31.057Z,15.27
2018-02-14T07:39:59.197Z,16.52
2018-02-14T07:42:27.337Z,15.68
2018-02-14T07:44:55.486Z,15.82
2018-02-14T07:47:23.624Z,14.80
2018-02-14T07:49:51.769Z,17.60
2018-02-14T07:52:19.916Z,16.08
2018-02-14T07:54:49.315Z,17.97
2018-02-14T07:57:17.436Z,18.10
2018-02-14T07:59:45.587Z,17.93
2018-02-14T08:02:13.725Z,15.37
2018-02-14T08:04:41.869Z,16.00
2018-02-14T08:07:09.984Z,17.70
2018-02-14T08:09:38.129Z,19.27
2018-02-14T08:12:06.255Z,18.20
2018-02-14T08:14:35.153Z,18.30
2018-02-14T08:17:03.322Z,17.20
2018-02-14T08:19:31.425Z,16.50
2018-02-14T08:21:59.545Z,16.47
2018-02-14T08:24:27.691Z,14.57
2018-02-14T08:26:55.820Z,13.67
2018-02-14T08:29:23.956Z,16.57
2018-02-14T08:31:52.080Z,17.73
2018-02-14T08:34:20.228Z,18.63
2018-02-14T08:36:49.102Z,18.00
2018-02-14T08:39:18.060Z,16.70
2018-02-14T08:41:46.184Z,17.00
2018-02-14T08:44:14.296Z,16.87
2018-02-14T08:46:42.433Z,15.53
2018-02-14T08:49:10.560Z,16.80
2018-02-14T08:51:38.700Z,15.40
2018-02-14T08:54:06.851Z,16.57
2018-02-14T08:56:34.966Z,17.57
2018-02-14T08:59:03.086Z,19.73
2018-02-14T09:01:31.226Z,22.30
2018-02-14T09:03:59.450Z,20.00
2018-02-14T09:06:27.623Z,14.13
2018-02-14T09:08:56.117Z,13.90
2018-02-14T09:11:24.322Z,14.20
2018-02-14T09:13:52.454Z,14.00
2018-02-14T09:16:20.584Z,15.37
2018-02-14T09:18:49.485Z,14.00
2018-02-14T09:21:17.619Z,14.27
2018-02-14T09:23:45.758Z,13.60
2018-02-14T09:26:13.882Z,13.37
2018-02-14T09:28:42.787Z,13.70
2018-02-14T09:31:10.923Z,13.27
2018-02-14T09:33:39.057Z,13.40
2018-02-14T09:36:07.209Z,13.53
2018-02-14T09:38:35.362Z,14.80
2018-02-14T09:41:03.613Z,12.97
2018-02-14T09:43:31.744Z,16.40
2018-02-14T09:45:59.860Z,13.97
2018-02-14T09:48:28.782Z,12.93
2018-02-14T09:50:56.906Z,14.20
2018-02-14T09:53:25.045Z,15.43
2018-02-14T09:55:53.167Z,15.40
2018-02-14T09:58:22.082Z,14.47
2018-02-14T10:00:50.213Z,12.93
2018-02-14T10:03:18.373Z,13.20
2018-02-14T10:05:46.510Z,15.53
2018-02-14T10:08:14.644Z,16.30
2018-02-14T10:10:42.769Z,15.40
2018-02-14T10:13:10.919Z,13.40
2018-02-14T10:15:39.087Z,13.83
2018-02-14T10:18:07.217Z,13.60
2018-02-14T10:20:35.338Z,13.90
2018-02-14T10:23:03.481Z,14.83
2018-02-14T10:25:32.368Z,14.10
2018-02-14T10:28:00.569Z,14.97
2018-02-14T10:30:28.695Z,15.10
2018-02-14T10:32:56.853Z,14.37
2018-02-14T10:35:25.040Z,14.47
2018-02-14T10:37:53.951Z,13.10
2018-02-14T10:40:22.092Z,14.73
2018-02-14T10:42:50.296Z,14.50
2018-02-14T10:45:19.208Z,14.30
2018-02-14T10:47:47.331Z,13.27
2018-02-14T10:50:17.067Z,13.67
2018-02-14T10:52:45.212Z,13.20
2018-02-14T10:55:13.379Z,12.10
2018-02-14T10:57:41.858Z,13.17
2018-02-14T11:00:09.982Z,13.90
2018-02-14T11:02:43.844Z,13.37
2018-02-14T11:05:18.352Z,14.13
2018-02-14T11:07:46.492Z,12.17
2018-02-14T11:10:14.741Z,12.70
2018-02-14T11:12:43.265Z,12.60
2018-02-14T11:15:11.444Z,13.50
2018-02-14T11:17:41.075Z,13.00
2018-02-14T11:20:09.973Z,12.90
2018-02-14T11:22:38.153Z,12.73
2018-02-14T11:25:06.299Z,10.90
2018-02-14T11:27:34.414Z,10.83
2018-02-14T11:30:02.552Z,11.07
2018-02-14T11:32:31.436Z,11.47
2018-02-14T11:35:00.343Z,11.90
2018-02-14T11:37:29.226Z,13.60
2018-02-14T11:39:57.367Z,12.10
2018-02-14T11:42:25.840Z,10.87
2018-02-14T11:44:53.973Z,11.03
2018-02-14T11:47:22.092Z,11.40
2018-02-14T11:49:50.984Z,9.60
2018-02-14T11:52:19.244Z,9.07
2018-02-14T11:54:47.427Z,10.40
2018-02-14T11:57:15.549Z,10.17
2018-02-14T11:59:43.680Z,10.77
2018-02-14T12:02:12.583Z,10.47
2018-02-14T12:04:40.704Z,11.40
2018-02-14T12:07:08.958Z,10.20
2018-02-14T12:09:37.067Z,9.97
2018-02-14T12:12:05.198Z,8.83
2018-02-14T12:14:33.404Z,10.40
2018-02-14T12:17:01.550Z,10.70
2018-02-14T12:19:29.784Z,9.10
2018-02-14T12:21:57.920Z,9.17
2018-02-14T12:24:26.064Z,9.00
2018-02-14T12:26:54.193Z,8.40
2018-02-14T12:29:22.328Z,10.33
2018-02-14T12:31:50.459Z,8.27
2018-02-14T12:34:18.587Z,8.07
2018-02-14T12:36:46.790Z,7.97
2018-02-14T12:39:14.919Z,8.23
2018-02-14T12:41:43.060Z,7.73
2018-02-14T12:44:11.185Z,6.90
2018-02-14T12:46:40.079Z,7.10
2018-02-14T12:49:08.975Z,7.07
2018-02-14T12:51:37.131Z,7.30
2018-02-14T12:54:05.244Z,8.40
2018-02-14T12:56:35.008Z,7.67
2018-02-14T12:59:03.920Z,7.00
2018-02-14T13:01:32.041Z,7.87
2018-02-14T13:04:00.560Z,8.40
2018-02-14T13:06:28.676Z,7.43
2018-02-14T13:08:57.414Z,7.83
2018-02-14T13:11:26.292Z,6.93
2018-02-14T13:13:54.425Z,8.10
2018-02-14T13:16:22.541Z,7.60
2018-02-14T13:18:51.437Z,8.17
2018-02-14T13:21:20.313Z,8.47
2018-02-14T13:23:48.457Z,8.40
2018-02-14T13:26:17.345Z,8.30
2018-02-14T13:28:46.305Z,8.60
2018-02-14T13:31:14.430Z,8.27
2018-02-14T13:33:44.106Z,8.10
2018-02-14T13:36:12.250Z,8.30
2018-02-14T13:38:40.594Z,7.73
2018-02-14T13:41:09.481Z,8.30
2018-02-14T13:43:39.162Z,7.97
2018-02-14T13:46:07.402Z,8.90
2018-02-14T13:48:35.528Z,8.23
2018-02-14T13:51:04.417Z,7.70
2018-02-14T13:53:38.268Z,6.83
2018-02-14T13:56:08.193Z,7.20
2018-02-14T13:58:37.280Z,7.65
2018-02-14T14:01:06.205Z,7.32
2018-02-14T14:03:34.413Z,6.73
2018-02-14T14:06:02.674Z,7.47
2018-02-14T14:08:32.064Z,7.37
2018-02-14T14:11:00.966Z,6.80
2018-02-14T14:13:29.982Z,7.18
2018-02-14T14:15:58.757Z,7.62
2018-02-14T14:18:27.884Z,6.70
2018-02-14T14:20:57.070Z,7.45
2018-02-14T14:23:26.641Z,7.22
2018-02-14T14:25:57.439Z,7.00
2018-02-14T14:28:26.572Z,7.50
2018-02-14T14:30:55.532Z,7.30
2018-02-14T14:33:24.741Z,7.37
2018-02-14T14:35:54.973Z,7.10
2018-02-14T14:38:25.553Z,7.50
2018-02-14T14:40:53.770Z,8.52
2018-02-14T14:43:22.666Z,8.70
2018-02-14T14:45:51.634Z,6.50
2018-02-14T14:48:19.756Z,8.18
2018-02-14T14:50:47.886Z,7.93
2018-02-14T14:53:16.788Z,6.90
2018-02-14T14:55:45.693Z,6.75
2018-02-14T14:58:13.812Z,8.23
2018-02-14T15:00:41.980Z,7.37
2018-02-14T15:03:10.128Z,5.68
2018-02-14T15:05:38.261Z,6.60
2018-02-14T15:08:07.165Z,6.53
2018-02-14T15:10:35.340Z,6.97
2018-02-14T15:13:03.470Z,8.68
2018-02-14T15:15:31.621Z,9.63
2018-02-14T15:17:59.757Z,7.80
2018-02-14T15:20:27.891Z,8.27
2018-02-14T15:22:56.028Z,11.48
2018-02-14T15:25:24.168Z,9.82
2018-02-14T15:27:52.310Z,7.55
2018-02-14T15:30:20.690Z,6.43
2018-02-14T15:32:49.591Z,9.30
2018-02-14T15:35:17.731Z,8.57
2018-02-14T15:37:46.621Z,8.85
2018-02-14T15:40:14.779Z,8.43
2018-02-14T15:42:43.164Z,10.15
2018-02-14T15:45:11.284Z,11.65
2018-02-14T15:47:39.433Z,11.32
2018-02-14T15:50:08.325Z,8.90
2018-02-14T15:52:37.250Z,8.80
2018-02-14T15:55:05.366Z,8.60
2018-02-14T15:57:33.510Z,8.43
2018-02-14T16:00:01.620Z,7.78
2018-02-14T16:02:30.680Z,8.40
2018-02-14T16:04:58.808Z,8.45
2018-02-14T16:07:26.948Z,7.25
2018-02-14T16:09:55.072Z,9.10
2018-02-14T16:12:23.203Z,8.25
2018-02-14T16:14:51.413Z,9.63
2018-02-14T16:17:19.549Z,10.05
2018-02-14T16:19:47.664Z,13.55
2018-02-14T16:22:15.828Z,11.12
2018-02-14T16:24:43.955Z,12.55
2018-02-14T16:27:12.091Z,9.02
2018-02-14T16:29:40.196Z,8.70
2018-02-14T16:32:08.335Z,9.88
2018-02-14T16:34:36.448Z,10.55
2018-02-14T16:37:04.608Z,10.50
2018-02-14T16:39:32.918Z,12.75
2018-02-14T16:42:01.049Z,14.43
2018-02-14T16:44:29.532Z,17.50
2018-02-14T16:46:57.666Z,16.85
2018-02-14T16:49:26.552Z,13.65
2018-02-14T16:51:54.670Z,14.35
2018-02-14T16:54:22.802Z,12.90
2018-02-14T16:56:51.078Z,13.95
2018-02-14T16:59:19.235Z,12.65
2018-02-14T17:01:47.344Z,15.35
2018-02-14T17:04:15.481Z,18.42
2018-02-14T17:06:43.634Z,17.70
2018-02-14T17:09:11.794Z,15.80
2018-02-14T17:11:39.921Z,14.63
2018-02-14T17:14:08.849Z,13.73
2018-02-14T17:16:36.961Z,22.40
2018-02-14T17:19:05.097Z,18.23
2018-02-14T17:21:33.417Z,14.30
2018-02-14T17:24:01.558Z,15.43
2018-02-14T17:26:29.683Z,15.18
2018-02-14T17:28:58.580Z,14.35
2018-02-14T17:31:27.469Z,14.02
2018-02-14T17:33:56.381Z,14.70
2018-02-14T17:36:24.508Z,12.98
2018-02-14T17:38:52.650Z,11.18
2018-02-14T17:41:20.788Z,14.70
2018-02-14T17:43:48.922Z,20.40
2018-02-14T17:46:17.040Z,29.25
2018-02-14T17:48:45.197Z,13.07
2018-02-14T17:51:14.145Z,17.75
2018-02-14T17:53:42.295Z,19.45
2018-02-14T17:56:10.504Z,17.67
2018-02-14T17:58:38.707Z,18.90
2018-02-14T18:01:07.567Z,20.40
2018-02-14T18:03:36.525Z,14.48
2018-02-14T18:06:04.688Z,17.15
2018-02-14T18:08:32.804Z,13.73
2018-02-14T18:11:00.953Z,19.42
2018-02-14T18:13:29.089Z,30.85
2018-02-14T18:15:57.238Z,15.82
2018-02-14T18:18:25.356Z,17.42
2018-02-14T18:20:53.511Z,15.43
2018-02-14T18:23:21.640Z,13.50
2018-02-14T18:25:49.780Z,13.05
2018-02-14T18:28:18.101Z,14.68
2018-02-14T18:30:46.248Z,13.80
2018-02-14T18:33:14.368Z,15.68
2018-02-14T18:35:42.515Z,15.00
2018-02-14T18:38:10.653Z,17.20
2018-02-14T18:40:38.849Z,14.43
2018-02-14T18:43:06.984Z,13.35
2018-02-14T18:45:35.316Z,14.07
2018-02-14T18:48:03.431Z,16.00
2018-02-14T18:50:34.161Z,14.80
2018-02-14T18:53:02.313Z,11.82
2018-02-14T18:55:30.463Z,11.93
2018-02-14T18:57:58.629Z,11.60
2018-02-14T19:00:27.058Z,11.15
2018-02-14T19:02:55.633Z,10.25
2018-02-14T19:05:23.898Z,10.35
2018-02-14T19:07:52.381Z,9.02
2018-02-14T19:10:25.480Z,12.18
2018-02-14T19:12:54.892Z,13.27
2018-02-14T19:15:23.088Z,14.87
2018-02-14T19:17:51.981Z,16.80
2018-02-14T19:20:21.711Z,18.85
2018-02-14T19:22:49.864Z,16.35
2018-02-14T19:25:18.009Z,13.10
2018-02-14T19:27:54.214Z,14.63
2018-02-14T19:30:24.044Z,13.50
2018-02-14T19:32:52.751Z,11.60
2018-02-14T19:35:23.624Z,11.25
2018-02-14T19:37:51.764Z,11.50
2018-02-14T19:40:20.133Z,10.25
2018-02-14T19:42:50.664Z,11.38
2018-02-14T19:45:21.824Z,10.50
2018-02-14T19:47:53.113Z,12.10
2018-02-14T19:50:21.583Z,12.23
2018-02-14T19:52:49.775Z,12.30
2018-02-14T19:55:18.136Z,14.45
2018-02-14T19:57:46.280Z,15.15
2018-02-14T20:00:15.177Z,14.93
2018-02-14T20:02:43.310Z,12.07
2018-02-14T20:05:11.461Z,10.98
2018-02-14T20:07:39.597Z,11.93
2018-02-14T20:10:07.728Z,11.90
2018-02-14T20:12:35.878Z,14.25
2018-02-14T20:15:04.009Z,22.87
2018-02-14T20:17:32.163Z,18.90
2018-02-14T20:20:01.044Z,16.48
2018-02-14T20:22:29.592Z,14.93
2018-02-14T20:24:57.721Z,12.95
2018-02-14T20:27:26.605Z,11.40
2018-02-14T20:29:54.735Z,11.30
2018-02-14T20:32:22.857Z,10.85
2018-02-14T20:34:51.004Z,11.20
2018-02-14T20:37:19.179Z,11.25
2018-02-14T20:39:47.320Z,11.63
2018-02-14T20:42:15.468Z,10.73
2018-02-14T20:44:43.609Z,11.50
2018-02-14T20:47:11.762Z,12.60
2018-02-14T20:49:39.916Z,12.07
2018-02-14T20:52:08.113Z,13.20
2018-02-14T20:54:37.031Z,13.35
2018-02-14T20:57:05.151Z,12.35
2018-02-14T20:59:33.318Z,11.52
2018-02-14T21:02:01.463Z,12.80
2018-02-14T21:04:29.600Z,13.20
2018-02-14T21:06:57.729Z,13.10
2018-02-14T21:09:26.640Z,13.60
2018-02-14T21:11:54.794Z,12.57
2018-02-14T21:14:22.937Z,14.05
2018-02-14T21:16:51.102Z,12.82
2018-02-14T21:19:19.237Z,15.10
2018-02-14T21:21:48.132Z,14.75
2018-02-14T21:24:16.264Z,14.05
2018-02-14T21:26:44.511Z,14.48
2018-02-14T21:29:12.717Z,17.05
2018-02-14T21:31:40.838Z,14.65
2018-02-14T21:34:08.976Z,13.82
2018-02-14T21:36:37.900Z,11.98
2018-02-14T21:39:06.096Z,11.95
2018-02-14T21:41:34.474Z,11.75
2018-02-14T21:44:03.412Z,12.37
2018-02-14T21:46:32.316Z,13.88
2018-02-14T21:49:00.444Z,15.40
2018-02-14T21:51:28.572Z,13.55
2018-02-14T21:53:56.704Z,15.20
2018-02-14T21:56:24.861Z,15.05
2018-02-14T21:58:52.976Z,14.25
2018-02-14T22:01:21.156Z,14.82
2018-02-14T22:03:49.320Z,14.80
2018-02-14T22:06:17.466Z,13.00
2018-02-14T22:08:45.622Z,13.82
2018-02-14T22:11:13.793Z,15.07
2018-02-14T22:13:42.756Z,14.13
2018-02-14T22:16:10.933Z,12.73
2018-02-14T22:18:39.104Z,12.48
2018-02-14T22:21:07.268Z,13.52
2018-02-14T22:23:35.395Z,13.27
2018-02-14T22:26:04.292Z,13.73
2018-02-14T22:28:32.440Z,16.87
2018-02-14T22:31:01.012Z,15.00
2018-02-14T22:33:29.137Z,13.88
2018-02-14T22:35:57.284Z,16.65
2018-02-14T22:38:25.427Z,15.00
2018-02-14T22:40:53.564Z,15.35
2018-02-14T22:43:21.697Z,13.40
2018-02-14T22:45:50.603Z,14.35
2018-02-14T22:48:18.729Z,13.57
2018-02-14T22:50:46.869Z,18.30
2018-02-14T22:53:15.012Z,14.18
2018-02-14T22:55:43.166Z,15.43
2018-02-14T22:58:12.061Z,15.55
2018-02-14T23:00:41.073Z,19.02
2018-02-14T23:03:09.212Z,20.95
2018-02-14T23:05:37.597Z,20.90
2018-02-14T23:08:06.518Z,19.10
2018-02-14T23:10:34.680Z,19.30
2018-02-14T23:13:02.817Z,19.73
2018-02-14T23:15:30.988Z,19.10
2018-02-14T23:17:59.116Z,20.35
2018-02-14T23:20:27.289Z,20.42
2018-02-14T23:22:55.420Z,17.30
2018-02-14T23:25:23.565Z,17.98
2018-02-14T23:27:51.710Z,20.75
2018-02-14T23:30:19.922Z,21.65
2018-02-14T23:32:48.812Z,19.92
2018-02-14T23:35:17.720Z,20.08
2018-02-14T23:37:45.864Z,19.25
2018-02-14T23:40:14.004Z,20.42
2018-02-14T23:42:42.130Z,18.62
2018-02-14T23:45:10.290Z,24.70
2018-02-14T23:47:38.422Z,19.90
2018-02-14T23:50:06.581Z,21.92
2018-02-14T23:52:34.701Z,19.62
2018-02-14T23:55:02.897Z,27.62
2018-02-14T23:57:31.054Z,22.73
2018-02-14T23:59:59.180Z,24.10
